sensor_id;sensor_type;location;lat;lon;timestamp;temperature;humidity
22682;DHT22;11508;50.856;4.380;2023-10-08T00:00:04;16.80;99.90
22682;DHT22;11508;50.856;4.380;2023-10-08T00:02:50;16.80;99.90
22682;DHT22;11508;50.856;4.380;2023-10-08T00:05:15;16.80;99.90
22682;DHT22;11508;50.856;4.380;2023-10-08T00:07:42;16.80;99.90
22682;DHT22;11508;50.856;4.380;2023-10-08T00:10:09;16.80;99.90
22682;DHT22;11508;50.856;4.380;2023-10-08T00:12:34;16.80;99.90
22682;DHT22;11508;50.856;4.380;2023-10-08T00:15:00;16.70;99.90
22682;DHT22;11508;50.856;4.380;2023-10-08T00:17:26;16.70;99.90
22682;DHT22;11508;50.856;4.380;2023-10-08T00:19:52;16.70;99.90
22682;DHT22;11508;50.856;4.380;2023-10-08T00:22:18;16.70;1.00
22682;DHT22;11508;50.856;4.380;2023-10-08T00:24:45;16.60;1.00
22682;DHT22;11508;50.856;4.380;2023-10-08T00:27:12;16.60;1.00
22682;DHT22;11508;50.856;4.380;2023-10-08T00:29:40;16.60;1.00
22682;DHT22;11508;50.856;4.380;2023-10-08T00:32:09;16.60;5.40
22682;DHT22;11508;50.856;4.380;2023-10-08T00:34:40;16.60;54.20
22682;DHT22;11508;50.856;4.380;2023-10-08T00:37:10;16.50;99.90
22682;DHT22;11508;50.856;4.380;2023-10-08T00:39:39;16.60;99.90
22682;DHT22;11508;50.856;4.380;2023-10-08T00:42:06;16.60;99.90
22682;DHT22;11508;50.856;4.380;2023-10-08T00:44:36;16.50;99.90
22682;DHT22;11508;50.856;4.380;2023-10-08T00:47:16;16.50;99.90
22682;DHT22;11508;50.856;4.380;2023-10-08T00:49:42;16.40;99.90
22682;DHT22;11508;50.856;4.380;2023-10-08T00:52:13;16.40;99.90
22682;DHT22;11508;50.856;4.380;2023-10-08T00:54:41;16.40;99.90
22682;DHT22;11508;50.856;4.380;2023-10-08T00:57:28;16.30;1.00
22682;DHT22;11508;50.856;4.380;2023-10-08T00:59:56;16.40;1.00
22682;DHT22;11508;50.856;4.380;2023-10-08T01:02:29;16.30;1.00
22682;DHT22;11508;50.856;4.380;2023-10-08T01:05:09;16.30;1.00
22682;DHT22;11508;50.856;4.380;2023-10-08T01:07:36;16.30;22.40
22682;DHT22;11508;50.856;4.380;2023-10-08T01:10:05;16.30;66.80
22682;DHT22;11508;50.856;4.380;2023-10-08T01:12:36;16.20;99.90
22682;DHT22;11508;50.856;4.380;2023-10-08T01:15:10;16.20;99.90
22682;DHT22;11508;50.856;4.380;2023-10-08T01:17:43;16.20;99.90
22682;DHT22;11508;50.856;4.380;2023-10-08T01:20:24;16.20;99.90
22682;DHT22;11508;50.856;4.380;2023-10-08T01:23:10;16.20;99.90
22682;DHT22;11508;50.856;4.380;2023-10-08T01:25:48;16.10;1.00
22682;DHT22;11508;50.856;4.380;2023-10-08T01:28:18;16.10;10.10
22682;DHT22;11508;50.856;4.380;2023-10-08T01:30:57;16.50;99.90
22682;DHT22;11508;50.856;4.380;2023-10-08T01:33:26;16.10;99.90
22682;DHT22;11508;50.856;4.380;2023-10-08T01:35:55;16.10;99.90
22682;DHT22;11508;50.856;4.380;2023-10-08T01:38:28;16.00;99.90
22682;DHT22;11508;50.856;4.380;2023-10-08T01:40:54;16.00;1.00
22682;DHT22;11508;50.856;4.380;2023-10-08T01:43:22;16.00;1.00
22682;DHT22;11508;50.856;4.380;2023-10-08T01:45:48;16.00;31.30
22682;DHT22;11508;50.856;4.380;2023-10-08T01:48:15;16.00;99.90
22682;DHT22;11508;50.856;4.380;2023-10-08T01:50:57;15.90;99.90
22682;DHT22;11508;50.856;4.380;2023-10-08T01:53:27;15.90;99.90
22682;DHT22;11508;50.856;4.380;2023-10-08T01:55:53;15.90;99.90
22682;DHT22;11508;50.856;4.380;2023-10-08T01:58:19;15.90;1.00
22682;DHT22;11508;50.856;4.380;2023-10-08T02:00:46;15.90;1.00
22682;DHT22;11508;50.856;4.380;2023-10-08T02:03:13;15.90;1.00
22682;DHT22;11508;50.856;4.380;2023-10-08T02:05:45;15.90;1.00
22682;DHT22;11508;50.856;4.380;2023-10-08T02:08:13;15.90;1.00
22682;DHT22;11508;50.856;4.380;2023-10-08T02:10:40;15.90;24.00
22682;DHT22;11508;50.856;4.380;2023-10-08T02:13:08;15.90;99.90
22682;DHT22;11508;50.856;4.380;2023-10-08T02:15:43;15.90;99.90
22682;DHT22;11508;50.856;4.380;2023-10-08T02:18:09;15.80;99.90
22682;DHT22;11508;50.856;4.380;2023-10-08T02:20:35;15.80;99.90
22682;DHT22;11508;50.856;4.380;2023-10-08T02:23:00;15.90;99.90
22682;DHT22;11508;50.856;4.380;2023-10-08T02:25:27;15.80;1.00
22682;DHT22;11508;50.856;4.380;2023-10-08T02:27:53;15.80;1.00
22682;DHT22;11508;50.856;4.380;2023-10-08T02:30:19;15.80;1.00
22682;DHT22;11508;50.856;4.380;2023-10-08T02:32:45;15.80;28.90
22682;DHT22;11508;50.856;4.380;2023-10-08T02:35:11;15.70;99.90
22682;DHT22;11508;50.856;4.380;2023-10-08T02:37:39;15.80;99.90
22682;DHT22;11508;50.856;4.380;2023-10-08T02:40:09;15.80;99.90
22682;DHT22;11508;50.856;4.380;2023-10-08T02:42:57;15.70;99.90
22682;DHT22;11508;50.856;4.380;2023-10-08T02:45:27;15.80;99.90
22682;DHT22;11508;50.856;4.380;2023-10-08T02:47:56;15.80;99.90
22682;DHT22;11508;50.856;4.380;2023-10-08T02:50:23;15.70;99.90
22682;DHT22;11508;50.856;4.380;2023-10-08T02:52:51;15.80;99.90
22682;DHT22;11508;50.856;4.380;2023-10-08T02:55:17;15.80;99.90
22682;DHT22;11508;50.856;4.380;2023-10-08T02:58:07;15.80;99.90
22682;DHT22;11508;50.856;4.380;2023-10-08T03:00:39;15.80;99.90
22682;DHT22;11508;50.856;4.380;2023-10-08T03:03:06;15.90;99.90
22682;DHT22;11508;50.856;4.380;2023-10-08T03:05:48;15.90;99.90
22682;DHT22;11508;50.856;4.380;2023-10-08T03:08:14;15.90;99.90
22682;DHT22;11508;50.856;4.380;2023-10-08T03:10:45;15.90;99.90
22682;DHT22;11508;50.856;4.380;2023-10-08T03:13:18;15.90;99.90
22682;DHT22;11508;50.856;4.380;2023-10-08T03:15:45;15.80;99.90
22682;DHT22;11508;50.856;4.380;2023-10-08T03:18:33;15.80;99.90
22682;DHT22;11508;50.856;4.380;2023-10-08T03:21:03;15.80;1.00
22682;DHT22;11508;50.856;4.380;2023-10-08T03:23:30;15.80;1.00
22682;DHT22;11508;50.856;4.380;2023-10-08T03:26:00;15.80;1.00
22682;DHT22;11508;50.856;4.380;2023-10-08T03:28:34;15.70;1.00
22682;DHT22;11508;50.856;4.380;2023-10-08T03:31:01;15.70;1.00
22682;DHT22;11508;50.856;4.380;2023-10-08T03:33:53;15.70;1.00
22682;DHT22;11508;50.856;4.380;2023-10-08T03:36:20;15.70;1.00
22682;DHT22;11508;50.856;4.380;2023-10-08T03:38:50;15.70;1.00
22682;DHT22;11508;50.856;4.380;2023-10-08T03:41:22;15.70;1.00
22682;DHT22;11508;50.856;4.380;2023-10-08T03:43:53;15.70;1.00
22682;DHT22;11508;50.856;4.380;2023-10-08T03:46:21;15.70;1.00
22682;DHT22;11508;50.856;4.380;2023-10-08T03:48:49;15.70;1.00
22682;DHT22;11508;50.856;4.380;2023-10-08T03:51:18;15.70;1.00
22682;DHT22;11508;50.856;4.380;2023-10-08T03:53:48;15.70;1.00
22682;DHT22;11508;50.856;4.380;2023-10-08T03:56:47;15.70;29.60
22682;DHT22;11508;50.856;4.380;2023-10-08T03:59:14;15.70;59.20
22682;DHT22;11508;50.856;4.380;2023-10-08T04:01:46;15.70;53.50
22682;DHT22;11508;50.856;4.380;2023-10-08T04:04:15;15.70;61.20
22682;DHT22;11508;50.856;4.380;2023-10-08T04:06:42;15.60;99.90
22682;DHT22;11508;50.856;4.380;2023-10-08T04:09:19;15.70;89.40
22682;DHT22;11508;50.856;4.380;2023-10-08T04:11:51;15.80;84.90
22682;DHT22;11508;50.856;4.380;2023-10-08T04:14:18;15.90;21.90
22682;DHT22;11508;50.856;4.380;2023-10-08T04:16:44;15.90;1.00
22682;DHT22;11508;50.856;4.380;2023-10-08T04:19:13;15.80;15.70
22682;DHT22;11508;50.856;4.380;2023-10-08T04:21:43;15.80;94.50
22682;DHT22;11508;50.856;4.380;2023-10-08T04:24:11;15.90;26.40
22682;DHT22;11508;50.856;4.380;2023-10-08T04:26:40;15.90;1.00
22682;DHT22;11508;50.856;4.380;2023-10-08T04:29:06;15.90;1.00
22682;DHT22;11508;50.856;4.380;2023-10-08T04:31:35;15.90;28.30
22682;DHT22;11508;50.856;4.380;2023-10-08T04:34:05;15.90;53.70
22682;DHT22;11508;50.856;4.380;2023-10-08T04:36:48;15.80;99.90
22682;DHT22;11508;50.856;4.380;2023-10-08T04:39:20;15.90;99.90
22682;DHT22;11508;50.856;4.380;2023-10-08T04:41:55;15.90;92.40
22682;DHT22;11508;50.856;4.380;2023-10-08T04:44:26;15.60;99.90
22682;DHT22;11508;50.856;4.380;2023-10-08T04:46:52;15.80;99.90
22682;DHT22;11508;50.856;4.380;2023-10-08T04:49:19;15.90;99.90
22682;DHT22;11508;50.856;4.380;2023-10-08T04:51:45;15.90;99.90
22682;DHT22;11508;50.856;4.380;2023-10-08T04:54:11;15.90;99.90
22682;DHT22;11508;50.856;4.380;2023-10-08T04:56:44;15.90;99.90
22682;DHT22;11508;50.856;4.380;2023-10-08T04:59:10;15.80;99.90
22682;DHT22;11508;50.856;4.380;2023-10-08T05:01:38;15.60;99.90
22682;DHT22;11508;50.856;4.380;2023-10-08T05:04:14;15.70;99.90
22682;DHT22;11508;50.856;4.380;2023-10-08T05:07:04;15.70;99.90
22682;DHT22;11508;50.856;4.380;2023-10-08T05:09:48;15.70;99.90
22682;DHT22;11508;50.856;4.380;2023-10-08T05:12:29;15.80;99.90
22682;DHT22;11508;50.856;4.380;2023-10-08T05:14:58;15.70;99.90
22682;DHT22;11508;50.856;4.380;2023-10-08T05:17:40;15.70;99.90
22682;DHT22;11508;50.856;4.380;2023-10-08T05:20:18;15.70;99.90
22682;DHT22;11508;50.856;4.380;2023-10-08T05:23:10;15.50;99.90
22682;DHT22;11508;50.856;4.380;2023-10-08T05:25:58;15.50;99.90
22682;DHT22;11508;50.856;4.380;2023-10-08T05:28:35;15.50;99.90
22682;DHT22;11508;50.856;4.380;2023-10-08T05:31:11;15.50;99.90
22682;DHT22;11508;50.856;4.380;2023-10-08T05:33:47;15.50;99.90
22682;DHT22;11508;50.856;4.380;2023-10-08T05:36:41;15.50;99.90
22682;DHT22;11508;50.856;4.380;2023-10-08T05:39:24;15.60;99.90
22682;DHT22;11508;50.856;4.380;2023-10-08T05:41:51;15.50;99.90
22682;DHT22;11508;50.856;4.380;2023-10-08T05:44:36;15.40;99.90
22682;DHT22;11508;50.856;4.380;2023-10-08T05:47:06;15.40;99.90
22682;DHT22;11508;50.856;4.380;2023-10-08T05:49:39;15.50;99.90
22682;DHT22;11508;50.856;4.380;2023-10-08T05:52:08;15.50;99.90
22682;DHT22;11508;50.856;4.380;2023-10-08T05:54:50;15.40;99.90
22682;DHT22;11508;50.856;4.380;2023-10-08T05:57:35;15.40;99.90
22682;DHT22;11508;50.856;4.380;2023-10-08T06:00:05;15.40;99.90
22682;DHT22;11508;50.856;4.380;2023-10-08T06:02:32;15.40;99.90
22682;DHT22;11508;50.856;4.380;2023-10-08T06:04:59;15.60;99.90
22682;DHT22;11508;50.856;4.380;2023-10-08T06:07:44;15.70;99.90
22682;DHT22;11508;50.856;4.380;2023-10-08T06:10:33;15.70;99.90
22682;DHT22;11508;50.856;4.380;2023-10-08T06:18:21;15.80;99.90
22682;DHT22;11508;50.856;4.380;2023-10-08T06:20:52;15.90;99.90
22682;DHT22;11508;50.856;4.380;2023-10-08T06:23:21;15.80;99.90
22682;DHT22;11508;50.856;4.380;2023-10-08T06:25:49;15.90;99.90
22682;DHT22;11508;50.856;4.380;2023-10-08T06:28:20;15.80;99.90
22682;DHT22;11508;50.856;4.380;2023-10-08T06:30:47;16.00;99.90
22682;DHT22;11508;50.856;4.380;2023-10-08T06:33:14;16.20;99.90
22682;DHT22;11508;50.856;4.380;2023-10-08T06:35:40;16.10;99.90
22682;DHT22;11508;50.856;4.380;2023-10-08T06:38:28;16.00;99.90
22682;DHT22;11508;50.856;4.380;2023-10-08T06:41:00;15.90;99.90
22682;DHT22;11508;50.856;4.380;2023-10-08T06:43:37;15.90;99.90
22682;DHT22;11508;50.856;4.380;2023-10-08T06:46:03;16.00;99.90
22682;DHT22;11508;50.856;4.380;2023-10-08T06:48:32;16.00;99.90
22682;DHT22;11508;50.856;4.380;2023-10-08T06:51:00;16.10;99.90
22682;DHT22;11508;50.856;4.380;2023-10-08T06:53:47;16.20;99.90
22682;DHT22;11508;50.856;4.380;2023-10-08T06:56:14;16.30;99.90
22682;DHT22;11508;50.856;4.380;2023-10-08T06:58:41;16.50;99.90
22682;DHT22;11508;50.856;4.380;2023-10-08T07:01:20;16.50;99.90
22682;DHT22;11508;50.856;4.380;2023-10-08T07:04:07;16.50;99.90
22682;DHT22;11508;50.856;4.380;2023-10-08T07:06:38;16.40;99.90
22682;DHT22;11508;50.856;4.380;2023-10-08T07:09:05;16.30;99.90
22682;DHT22;11508;50.856;4.380;2023-10-08T07:11:32;16.20;99.90
22682;DHT22;11508;50.856;4.380;2023-10-08T07:14:03;16.20;99.90
22682;DHT22;11508;50.856;4.380;2023-10-08T07:16:33;16.20;99.90
22682;DHT22;11508;50.856;4.380;2023-10-08T07:18:59;16.20;99.90
22682;DHT22;11508;50.856;4.380;2023-10-08T07:21:30;16.40;99.90
22682;DHT22;11508;50.856;4.380;2023-10-08T07:24:11;16.50;99.90
22682;DHT22;11508;50.856;4.380;2023-10-08T07:26:40;16.80;99.90
22682;DHT22;11508;50.856;4.380;2023-10-08T07:29:12;16.80;93.80
22682;DHT22;11508;50.856;4.380;2023-10-08T07:31:39;16.40;99.90
22682;DHT22;11508;50.856;4.380;2023-10-08T07:34:08;16.40;99.90
22682;DHT22;11508;50.856;4.380;2023-10-08T07:36:55;16.50;99.90
22682;DHT22;11508;50.856;4.380;2023-10-08T07:39:22;16.50;99.90
22682;DHT22;11508;50.856;4.380;2023-10-08T07:41:53;16.60;99.90
22682;DHT22;11508;50.856;4.380;2023-10-08T07:44:20;16.50;99.90
22682;DHT22;11508;50.856;4.380;2023-10-08T07:46:50;16.50;99.90
22682;DHT22;11508;50.856;4.380;2023-10-08T07:49:17;16.80;99.90
22682;DHT22;11508;50.856;4.380;2023-10-08T07:51:43;17.00;80.20
22682;DHT22;11508;50.856;4.380;2023-10-08T07:54:17;16.90;99.90
22682;DHT22;11508;50.856;4.380;2023-10-08T07:56:47;16.90;91.80
22682;DHT22;11508;50.856;4.380;2023-10-08T07:59:14;16.80;99.90
22682;DHT22;11508;50.856;4.380;2023-10-08T08:01:47;16.60;99.90
22682;DHT22;11508;50.856;4.380;2023-10-08T08:04:13;16.70;99.90
22682;DHT22;11508;50.856;4.380;2023-10-08T08:06:51;16.80;99.90
22682;DHT22;11508;50.856;4.380;2023-10-08T08:09:18;16.80;99.90
22682;DHT22;11508;50.856;4.380;2023-10-08T08:11:49;16.70;99.90
22682;DHT22;11508;50.856;4.380;2023-10-08T08:14:16;16.90;99.90
22682;DHT22;11508;50.856;4.380;2023-10-08T08:16:50;17.00;99.90
22682;DHT22;11508;50.856;4.380;2023-10-08T08:19:17;17.10;99.90
22682;DHT22;11508;50.856;4.380;2023-10-08T08:21:49;17.10;99.90
22682;DHT22;11508;50.856;4.380;2023-10-08T08:24:17;17.00;99.90
22682;DHT22;11508;50.856;4.380;2023-10-08T08:26:58;17.20;99.90
22682;DHT22;11508;50.856;4.380;2023-10-08T08:29:33;17.60;36.20
22682;DHT22;11508;50.856;4.380;2023-10-08T08:32:10;17.60;1.00
22682;DHT22;11508;50.856;4.380;2023-10-08T08:34:41;17.40;49.20
22682;DHT22;11508;50.856;4.380;2023-10-08T08:37:12;17.50;39.20
22682;DHT22;11508;50.856;4.380;2023-10-08T08:39:41;17.90;1.00
22682;DHT22;11508;50.856;4.380;2023-10-08T08:42:07;18.00;1.00
22682;DHT22;11508;50.856;4.380;2023-10-08T08:44:36;18.10;1.00
22682;DHT22;11508;50.856;4.380;2023-10-08T08:47:05;17.70;1.00
22682;DHT22;11508;50.856;4.380;2023-10-08T08:49:36;17.50;46.40
22682;DHT22;11508;50.856;4.380;2023-10-08T08:52:05;17.60;78.00
22682;DHT22;11508;50.856;4.380;2023-10-08T08:54:31;17.70;99.90
22682;DHT22;11508;50.856;4.380;2023-10-08T08:57:05;17.80;58.00
22682;DHT22;11508;50.856;4.380;2023-10-08T08:59:53;17.80;94.40
22682;DHT22;11508;50.856;4.380;2023-10-08T09:02:20;18.00;92.40
22682;DHT22;11508;50.856;4.380;2023-10-08T09:04:48;18.30;1.00
22682;DHT22;11508;50.856;4.380;2023-10-08T09:07:14;18.60;1.00
22682;DHT22;11508;50.856;4.380;2023-10-08T09:09:40;18.70;99.90
22682;DHT22;11508;50.856;4.380;2023-10-08T09:12:07;18.50;99.90
22682;DHT22;11508;50.856;4.380;2023-10-08T09:14:37;18.40;1.00
22682;DHT22;11508;50.856;4.380;2023-10-08T09:17:06;18.90;99.90
22682;DHT22;11508;50.856;4.380;2023-10-08T09:19:39;18.80;99.90
22682;DHT22;11508;50.856;4.380;2023-10-08T09:22:09;19.10;99.90
22682;DHT22;11508;50.856;4.380;2023-10-08T09:24:41;19.00;99.90
22682;DHT22;11508;50.856;4.380;2023-10-08T09:27:09;18.80;99.90
22682;DHT22;11508;50.856;4.380;2023-10-08T09:29:40;18.40;1.00
22682;DHT22;11508;50.856;4.380;2023-10-08T09:32:08;18.10;78.40
22682;DHT22;11508;50.856;4.380;2023-10-08T09:34:33;18.00;99.90
22682;DHT22;11508;50.856;4.380;2023-10-08T09:37:00;18.20;99.90
22682;DHT22;11508;50.856;4.380;2023-10-08T09:39:30;18.40;93.20
22682;DHT22;11508;50.856;4.380;2023-10-08T09:42:00;18.90;1.00
22682;DHT22;11508;50.856;4.380;2023-10-08T09:44:29;19.30;1.00
22682;DHT22;11508;50.856;4.380;2023-10-08T09:47:05;19.70;99.90
22682;DHT22;11508;50.856;4.380;2023-10-08T09:50:04;19.20;99.90
22682;DHT22;11508;50.856;4.380;2023-10-08T09:52:48;19.70;99.90
22682;DHT22;11508;50.856;4.380;2023-10-08T09:55:17;20.10;99.90
22682;DHT22;11508;50.856;4.380;2023-10-08T09:57:44;20.40;99.90
22682;DHT22;11508;50.856;4.380;2023-10-08T10:00:10;20.70;99.90
22682;DHT22;11508;50.856;4.380;2023-10-08T10:02:44;20.50;99.90
22682;DHT22;11508;50.856;4.380;2023-10-08T10:05:19;20.60;99.90
22682;DHT22;11508;50.856;4.380;2023-10-08T10:07:49;21.10;6.50
22682;DHT22;11508;50.856;4.380;2023-10-08T10:10:32;21.30;99.90
22682;DHT22;11508;50.856;4.380;2023-10-08T10:13:04;21.00;99.90
22682;DHT22;11508;50.856;4.380;2023-10-08T10:15:33;20.90;99.90
22682;DHT22;11508;50.856;4.380;2023-10-08T10:18:27;21.10;1.00
22682;DHT22;11508;50.856;4.380;2023-10-08T10:26:21;20.10;1.00
22682;DHT22;11508;50.856;4.380;2023-10-08T10:31:44;20.70;99.90
22682;DHT22;11508;50.856;4.380;2023-10-08T10:34:13;21.30;6.10
22682;DHT22;11508;50.856;4.380;2023-10-08T10:36:42;21.80;99.90
22682;DHT22;11508;50.856;4.380;2023-10-08T10:39:10;21.80;1.00
22682;DHT22;11508;50.856;4.380;2023-10-08T10:41:46;21.80;99.90
22682;DHT22;11508;50.856;4.380;2023-10-08T10:44:13;21.50;74.30
22682;DHT22;11508;50.856;4.380;2023-10-08T10:46:41;21.10;1.00
22682;DHT22;11508;50.856;4.380;2023-10-08T10:49:08;21.20;99.90
22682;DHT22;11508;50.856;4.380;2023-10-08T10:51:50;21.70;99.90
22682;DHT22;11508;50.856;4.380;2023-10-08T10:54:39;21.90;55.60
22682;DHT22;11508;50.856;4.380;2023-10-08T10:57:06;22.30;99.90
22682;DHT22;11508;50.856;4.380;2023-10-08T10:59:42;22.20;99.90
22682;DHT22;11508;50.856;4.380;2023-10-08T11:02:18;21.60;1.00
22682;DHT22;11508;50.856;4.380;2023-10-08T11:04:56;21.80;99.90
22682;DHT22;11508;50.856;4.380;2023-10-08T11:07:33;22.00;1.00
22682;DHT22;11508;50.856;4.380;2023-10-08T11:10:00;22.60;60.60
22682;DHT22;11508;50.856;4.380;2023-10-08T11:12:26;22.70;99.90
22682;DHT22;11508;50.856;4.380;2023-10-08T11:15:11;22.30;22.80
22682;DHT22;11508;50.856;4.380;2023-10-08T11:17:41;22.60;99.90
22682;DHT22;11508;50.856;4.380;2023-10-08T11:20:27;23.40;99.90
22682;DHT22;11508;50.856;4.380;2023-10-08T11:22:53;24.50;1.00
22682;DHT22;11508;50.856;4.380;2023-10-08T11:25:39;24.90;99.90
22682;DHT22;11508;50.856;4.380;2023-10-08T11:28:09;25.60;1.00
22682;DHT22;11508;50.856;4.380;2023-10-08T11:30:37;24.20;48.40
22682;DHT22;11508;50.856;4.380;2023-10-08T11:33:07;23.90;99.90
22682;DHT22;11508;50.856;4.380;2023-10-08T11:35:33;23.20;99.90
22682;DHT22;11508;50.856;4.380;2023-10-08T11:38:00;22.60;1.00
22682;DHT22;11508;50.856;4.380;2023-10-08T11:40:28;22.60;78.30
22682;DHT22;11508;50.856;4.380;2023-10-08T11:42:58;22.90;1.00
22682;DHT22;11508;50.856;4.380;2023-10-08T11:45:28;23.40;1.00
22682;DHT22;11508;50.856;4.380;2023-10-08T11:48:07;23.90;99.90
22682;DHT22;11508;50.856;4.380;2023-10-08T11:50:37;24.30;99.90
22682;DHT22;11508;50.856;4.380;2023-10-08T11:53:04;24.70;12.60
22682;DHT22;11508;50.856;4.380;2023-10-08T11:55:35;23.60;99.90
22682;DHT22;11508;50.856;4.380;2023-10-08T11:58:06;23.20;99.90
22682;DHT22;11508;50.856;4.380;2023-10-08T12:00:44;23.30;99.90
22682;DHT22;11508;50.856;4.380;2023-10-08T12:03:14;23.40;99.90
22682;DHT22;11508;50.856;4.380;2023-10-08T12:05:46;23.10;99.90
22682;DHT22;11508;50.856;4.380;2023-10-08T12:08:17;23.30;99.90
22682;DHT22;11508;50.856;4.380;2023-10-08T12:10:46;24.00;84.60
22682;DHT22;11508;50.856;4.380;2023-10-08T12:13:14;24.10;1.00
22682;DHT22;11508;50.856;4.380;2023-10-08T12:15:44;24.50;1.00
22682;DHT22;11508;50.856;4.380;2023-10-08T12:18:10;24.40;1.00
22682;DHT22;11508;50.856;4.380;2023-10-08T12:20:55;25.20;99.90
22682;DHT22;11508;50.856;4.380;2023-10-08T12:23:21;26.40;99.90
22682;DHT22;11508;50.856;4.380;2023-10-08T12:25:54;26.60;99.90
22682;DHT22;11508;50.856;4.380;2023-10-08T12:28:24;24.80;99.90
22682;DHT22;11508;50.856;4.380;2023-10-08T12:30:51;24.20;99.90
22682;DHT22;11508;50.856;4.380;2023-10-08T12:33:22;24.30;99.90
22682;DHT22;11508;50.856;4.380;2023-10-08T12:35:53;24.40;99.90
22682;DHT22;11508;50.856;4.380;2023-10-08T12:38:19;25.40;99.90
22682;DHT22;11508;50.856;4.380;2023-10-08T12:40:48;24.40;99.90
22682;DHT22;11508;50.856;4.380;2023-10-08T12:43:21;24.60;99.90
22682;DHT22;11508;50.856;4.380;2023-10-08T12:45:51;25.10;99.90
22682;DHT22;11508;50.856;4.380;2023-10-08T12:48:26;25.00;99.90
22682;DHT22;11508;50.856;4.380;2023-10-08T12:50:56;25.40;99.90
22682;DHT22;11508;50.856;4.380;2023-10-08T12:53:27;26.20;65.60
22682;DHT22;11508;50.856;4.380;2023-10-08T12:55:59;25.80;78.10
22682;DHT22;11508;50.856;4.380;2023-10-08T12:58:35;25.10;94.80
22682;DHT22;11508;50.856;4.380;2023-10-08T13:01:12;24.80;87.70
22682;DHT22;11508;50.856;4.380;2023-10-08T13:03:42;24.80;95.10
22682;DHT22;11508;50.856;4.380;2023-10-08T13:06:09;24.90;94.30
22682;DHT22;11508;50.856;4.380;2023-10-08T13:08:47;24.40;94.10
22682;DHT22;11508;50.856;4.380;2023-10-08T13:11:13;24.70;99.90
22682;DHT22;11508;50.856;4.380;2023-10-08T13:13:39;25.00;96.70
22682;DHT22;11508;50.856;4.380;2023-10-08T13:16:04;24.60;68.40
22682;DHT22;11508;50.856;4.380;2023-10-08T13:18:33;24.40;74.20
22682;DHT22;11508;50.856;4.380;2023-10-08T13:20:59;25.10;82.60
22682;DHT22;11508;50.856;4.380;2023-10-08T13:23:26;25.80;32.00
22682;DHT22;11508;50.856;4.380;2023-10-08T13:25:55;25.40;11.90
22682;DHT22;11508;50.856;4.380;2023-10-08T13:28:23;24.70;20.10
22682;DHT22;11508;50.856;4.380;2023-10-08T13:30:49;25.30;17.50
22682;DHT22;11508;50.856;4.380;2023-10-08T13:33:27;25.10;6.00
22682;DHT22;11508;50.856;4.380;2023-10-08T13:35:54;24.50;13.70
22682;DHT22;11508;50.856;4.380;2023-10-08T13:38:20;24.20;25.70
22682;DHT22;11508;50.856;4.380;2023-10-08T13:40:47;24.20;26.40
22682;DHT22;11508;50.856;4.380;2023-10-08T13:43:33;24.20;39.80
22682;DHT22;11508;50.856;4.380;2023-10-08T13:46:07;24.30;23.00
22682;DHT22;11508;50.856;4.380;2023-10-08T13:48:38;24.00;28.60
22682;DHT22;11508;50.856;4.380;2023-10-08T13:51:05;23.70;34.00
22682;DHT22;11508;50.856;4.380;2023-10-08T13:53:34;23.50;53.20
22682;DHT22;11508;50.856;4.380;2023-10-08T13:56:03;23.30;77.00
22682;DHT22;11508;50.856;4.380;2023-10-08T13:58:32;23.50;84.40
22682;DHT22;11508;50.856;4.380;2023-10-08T14:01:02;23.40;98.30
22682;DHT22;11508;50.856;4.380;2023-10-08T14:03:39;23.70;99.90
22682;DHT22;11508;50.856;4.380;2023-10-08T14:06:06;24.30;97.20
22682;DHT22;11508;50.856;4.380;2023-10-08T14:08:33;24.20;99.90
22682;DHT22;11508;50.856;4.380;2023-10-08T14:10:59;23.30;99.90
22682;DHT22;11508;50.856;4.380;2023-10-08T14:13:31;23.00;99.90
22682;DHT22;11508;50.856;4.380;2023-10-08T14:16:03;22.90;99.90
22682;DHT22;11508;50.856;4.380;2023-10-08T14:18:35;23.00;99.90
22682;DHT22;11508;50.856;4.380;2023-10-08T14:21:07;23.10;99.90
22682;DHT22;11508;50.856;4.380;2023-10-08T14:23:37;23.30;99.90
22682;DHT22;11508;50.856;4.380;2023-10-08T14:26:07;23.30;99.90
22682;DHT22;11508;50.856;4.380;2023-10-08T14:28:34;23.10;99.90
22682;DHT22;11508;50.856;4.380;2023-10-08T14:31:19;23.40;99.90
22682;DHT22;11508;50.856;4.380;2023-10-08T14:33:48;23.70;99.90
22682;DHT22;11508;50.856;4.380;2023-10-08T14:36:33;23.70;99.90
22682;DHT22;11508;50.856;4.380;2023-10-08T14:39:18;23.70;99.90
22682;DHT22;11508;50.856;4.380;2023-10-08T14:42:03;23.70;99.90
22682;DHT22;11508;50.856;4.380;2023-10-08T14:44:47;23.90;99.90
22682;DHT22;11508;50.856;4.380;2023-10-08T14:47:14;23.50;99.90
22682;DHT22;11508;50.856;4.380;2023-10-08T14:49:41;23.20;99.90
22682;DHT22;11508;50.856;4.380;2023-10-08T14:52:09;23.20;99.90
22682;DHT22;11508;50.856;4.380;2023-10-08T14:54:34;23.30;99.90
22682;DHT22;11508;50.856;4.380;2023-10-08T14:57:00;23.50;99.90
22682;DHT22;11508;50.856;4.380;2023-10-08T14:59:28;23.60;99.90
22682;DHT22;11508;50.856;4.380;2023-10-08T15:01:56;23.60;99.90
22682;DHT22;11508;50.856;4.380;2023-10-08T15:04:22;23.60;99.90
22682;DHT22;11508;50.856;4.380;2023-10-08T15:06:48;23.30;99.90
22682;DHT22;11508;50.856;4.380;2023-10-08T15:09:15;23.20;99.90
22682;DHT22;11508;50.856;4.380;2023-10-08T15:11:47;23.10;99.90
22682;DHT22;11508;50.856;4.380;2023-10-08T15:14:13;23.00;99.90
22682;DHT22;11508;50.856;4.380;2023-10-08T15:16:41;22.80;99.90
22682;DHT22;11508;50.856;4.380;2023-10-08T15:19:09;22.70;99.90
22682;DHT22;11508;50.856;4.380;2023-10-08T15:21:38;22.70;99.90
22682;DHT22;11508;50.856;4.380;2023-10-08T15:24:05;22.60;99.90
22682;DHT22;11508;50.856;4.380;2023-10-08T15:26:36;22.70;99.90
22682;DHT22;11508;50.856;4.380;2023-10-08T15:29:02;22.70;99.90
22682;DHT22;11508;50.856;4.380;2023-10-08T15:31:28;22.70;99.90
22682;DHT22;11508;50.856;4.380;2023-10-08T15:33:54;22.70;99.90
22682;DHT22;11508;50.856;4.380;2023-10-08T15:36:21;22.70;99.90
22682;DHT22;11508;50.856;4.380;2023-10-08T15:38:47;22.80;99.90
22682;DHT22;11508;50.856;4.380;2023-10-08T15:41:12;22.80;99.90
22682;DHT22;11508;50.856;4.380;2023-10-08T15:43:40;22.70;99.90
22682;DHT22;11508;50.856;4.380;2023-10-08T15:46:10;22.60;99.90
22682;DHT22;11508;50.856;4.380;2023-10-08T15:48:35;22.50;99.90
22682;DHT22;11508;50.856;4.380;2023-10-08T15:51:03;22.20;99.90
22682;DHT22;11508;50.856;4.380;2023-10-08T15:53:30;22.50;99.90
22682;DHT22;11508;50.856;4.380;2023-10-08T15:55:56;22.50;99.90
22682;DHT22;11508;50.856;4.380;2023-10-08T15:58:22;22.50;99.90
22682;DHT22;11508;50.856;4.380;2023-10-08T16:00:48;22.50;99.90
22682;DHT22;11508;50.856;4.380;2023-10-08T16:03:13;22.40;99.90
22682;DHT22;11508;50.856;4.380;2023-10-08T16:05:43;22.50;99.90
22682;DHT22;11508;50.856;4.380;2023-10-08T16:08:09;22.40;99.90
22682;DHT22;11508;50.856;4.380;2023-10-08T16:10:35;22.40;99.90